Castlewood, VA (24224)

8:41 AM EST on February 12, 2016 (GMT -0500)
Lonesome Pine | | Change Station
CLOSE
Current Station
Airport
Location: Wise,
Elevation: 2684 ft
Nearby Weather Stations
Active Advisory: Winter Weather Advisory

Elev 2684 ft 36.99 °N, 82.53 °W | Updated 6 minutes ago

Overcast
Overcast
27 °F
Feels Like 27 °F
N
0
Wind Variable Wind from North

Today
High -- | Low -- °F
--% Chance of Precip.
Yesterday
High -- | Low -- °F
Precip. -- in
Pressure 30.06 in
Visibility 10.0 miles
Clouds Overcast 6500 ft
Dew Point 14 °F
Humidity 59%
Rainfall 0.00 in
Snow Depth Not available.
7:21 AM 6:05 PM
Waxing Crescent, 20% visible
METAR KLNP 121335Z AUTO 00000KT 10SM OVC065 M03/M10 A3006 RMK AO2
Pressure 30.06 in
Visibility 10.0 miles
Clouds Overcast 6500 ft
Dew Point 14 °F
Humidity 59%
Rainfall 0.00 in
Snow Depth Not available.
7:21 AM 6:05 PM
Waxing Crescent, 20% visible
METAR KLNP 121335Z AUTO 00000KT 10SM OVC065 M03/M10 A3006 RMK AO2

10-Day Weather Forecast

Almanac

Astronomy

Feb. 12, 2016 Rise Set
Actual Time
Civil Twilight
Nautical Twilight
Astronomical Twilight
Moon
Length of Visible Light
Length of Day
Tomorrow will be .
, % of the Moon is Illuminated

Today's Extremes

State Highs State Lows

Community

WunderPhotos

Upload Photos

1,892,313 photos uploaded!

WunderBlog® & News

Nearby

Air Quality

  Air Quality AQ Index Pollutant
Not available.

Snow Depth

Station Depth Elevation

Earthquake Activity

City Distance Mag. Time & Date
Minimum magnitude displayed is 2.5.

Coastal Water Temperatures

Place Temperature

Stations

Nearby Weather Stations

Station Location Temp. Windchill Dew Point Humidity Wind Precip. Elev Updated Type
                   

Watches & Warnings

Winter Weather Advisory
Issued: 8:10 AM EST Feb. 12, 2016 – National Weather Service

... Winter Weather Advisory remains in effect until 4 am EST
Saturday...

* event... snow accumulations of 1 to 4 inches are expected. The
greatest accumulations will be in the higher elevations.

* Timing... snow will continue through this morning. Scattered to
numerous snow showers will linger into tonight.

* Impacts... the snow may lead to hazardous Road conditions
especially on untreated roadways.

Precautionary/preparedness actions...

Travel will likely become hazardous once the wintry precipitation
begins. Motorists need to be especially careful on bridges and
overpasses where slippery spots often develop first.